sensor_id;sensor_type;location;lat;lon;timestamp;P1;durP1;ratioP1;P2;durP2;ratioP2
43823;SDS011;29470;53.550;9.926;2023-08-08T00:03:44;5.43;;;2.00;;
43823;SDS011;29470;53.550;9.926;2023-08-08T00:08:47;7.18;;;2.40;;
43823;SDS011;29470;53.550;9.926;2023-08-08T00:13:51;5.93;;;2.15;;
43823;SDS011;29470;53.550;9.926;2023-08-08T00:18:54;7.47;;;2.38;;
43823;SDS011;29470;53.550;9.926;2023-08-08T00:23:57;6.45;;;2.20;;
43823;SDS011;29470;53.550;9.926;2023-08-08T00:29:01;7.70;;;2.42;;
43823;SDS011;29470;53.550;9.926;2023-08-08T00:34:04;6.43;;;2.50;;
43823;SDS011;29470;53.550;9.926;2023-08-08T00:39:07;6.35;;;2.08;;
43823;SDS011;29470;53.550;9.926;2023-08-08T00:44:11;6.57;;;2.30;;
43823;SDS011;29470;53.550;9.926;2023-08-08T00:49:14;5.05;;;2.10;;
43823;SDS011;29470;53.550;9.926;2023-08-08T00:54:17;7.38;;;2.58;;
43823;SDS011;29470;53.550;9.926;2023-08-08T00:59:22;9.10;;;2.70;;
43823;SDS011;29470;53.550;9.926;2023-08-08T01:04:26;7.80;;;2.20;;
43823;SDS011;29470;53.550;9.926;2023-08-08T01:09:32;8.35;;;2.60;;
43823;SDS011;29470;53.550;9.926;2023-08-08T01:14:41;7.75;;;2.45;;
43823;SDS011;29470;53.550;9.926;2023-08-08T01:19:45;5.85;;;2.38;;
43823;SDS011;29470;53.550;9.926;2023-08-08T01:24:54;5.60;;;2.30;;
43823;SDS011;29470;53.550;9.926;2023-08-08T01:29:58;8.55;;;2.15;;
43823;SDS011;29470;53.550;9.926;2023-08-08T01:35:00;6.32;;;2.03;;
43823;SDS011;29470;53.550;9.926;2023-08-08T01:40:06;5.05;;;2.05;;
43823;SDS011;29470;53.550;9.926;2023-08-08T01:45:11;4.80;;;2.20;;
43823;SDS011;29470;53.550;9.926;2023-08-08T01:50:15;6.05;;;2.15;;
43823;SDS011;29470;53.550;9.926;2023-08-08T01:55:19;6.70;;;2.53;;
43823;SDS011;29470;53.550;9.926;2023-08-08T02:00:23;4.32;;;1.65;;
43823;SDS011;29470;53.550;9.926;2023-08-08T02:05:27;4.13;;;1.73;;
43823;SDS011;29470;53.550;9.926;2023-08-08T02:10:31;3.92;;;1.50;;
43823;SDS011;29470;53.550;9.926;2023-08-08T02:15:33;4.65;;;1.67;;
43823;SDS011;29470;53.550;9.926;2023-08-08T02:20:37;15.40;;;2.35;;
43823;SDS011;29470;53.550;9.926;2023-08-08T02:25:41;2.92;;;1.33;;
43823;SDS011;29470;53.550;9.926;2023-08-08T02:30:44;4.70;;;1.70;;
43823;SDS011;29470;53.550;9.926;2023-08-08T02:35:47;4.00;;;1.65;;
43823;SDS011;29470;53.550;9.926;2023-08-08T02:40:51;4.72;;;1.45;;
43823;SDS011;29470;53.550;9.926;2023-08-08T02:46:00;3.72;;;1.42;;
43823;SDS011;29470;53.550;9.926;2023-08-08T02:51:19;6.32;;;1.73;;
43823;SDS011;29470;53.550;9.926;2023-08-08T02:56:24;4.90;;;1.30;;
43823;SDS011;29470;53.550;9.926;2023-08-08T03:01:27;3.63;;;1.55;;
43823;SDS011;29470;53.550;9.926;2023-08-08T03:06:34;3.72;;;1.30;;
43823;SDS011;29470;53.550;9.926;2023-08-08T03:11:40;6.07;;;1.55;;
43823;SDS011;29470;53.550;9.926;2023-08-08T03:16:47;4.78;;;1.33;;
43823;SDS011;29470;53.550;9.926;2023-08-08T03:21:50;3.90;;;1.27;;
43823;SDS011;29470;53.550;9.926;2023-08-08T03:26:56;2.70;;;1.40;;
43823;SDS011;29470;53.550;9.926;2023-08-08T03:31:59;6.88;;;1.75;;
43823;SDS011;29470;53.550;9.926;2023-08-08T03:37:05;3.85;;;1.75;;
43823;SDS011;29470;53.550;9.926;2023-08-08T03:42:11;6.28;;;1.67;;
43823;SDS011;29470;53.550;9.926;2023-08-08T03:47:13;3.08;;;1.33;;
43823;SDS011;29470;53.550;9.926;2023-08-08T03:52:21;3.90;;;1.48;;
43823;SDS011;29470;53.550;9.926;2023-08-08T03:57:26;3.53;;;1.65;;
43823;SDS011;29470;53.550;9.926;2023-08-08T04:02:29;4.38;;;1.33;;
43823;SDS011;29470;53.550;9.926;2023-08-08T04:07:31;4.35;;;1.48;;
43823;SDS011;29470;53.550;9.926;2023-08-08T04:12:36;4.13;;;1.67;;
43823;SDS011;29470;53.550;9.926;2023-08-08T04:17:40;3.88;;;1.70;;
43823;SDS011;29470;53.550;9.926;2023-08-08T04:22:42;4.28;;;1.40;;
43823;SDS011;29470;53.550;9.926;2023-08-08T04:27:47;2.20;;;1.20;;
43823;SDS011;29470;53.550;9.926;2023-08-08T04:32:49;5.30;;;1.50;;
43823;SDS011;29470;53.550;9.926;2023-08-08T04:37:52;4.32;;;1.33;;
43823;SDS011;29470;53.550;9.926;2023-08-08T04:42:57;2.58;;;1.38;;
43823;SDS011;29470;53.550;9.926;2023-08-08T04:47:59;2.13;;;1.30;;
43823;SDS011;29470;53.550;9.926;2023-08-08T04:53:03;2.72;;;1.50;;
43823;SDS011;29470;53.550;9.926;2023-08-08T04:58:07;4.60;;;1.38;;
43823;SDS011;29470;53.550;9.926;2023-08-08T05:03:10;3.53;;;1.58;;
43823;SDS011;29470;53.550;9.926;2023-08-08T05:08:13;2.78;;;1.20;;
43823;SDS011;29470;53.550;9.926;2023-08-08T05:13:18;2.90;;;1.48;;
43823;SDS011;29470;53.550;9.926;2023-08-08T05:18:20;5.38;;;1.45;;
43823;SDS011;29470;53.550;9.926;2023-08-08T05:23:23;4.63;;;1.50;;
43823;SDS011;29470;53.550;9.926;2023-08-08T05:28:27;2.97;;;1.30;;
43823;SDS011;29470;53.550;9.926;2023-08-08T05:33:30;3.35;;;1.45;;
43823;SDS011;29470;53.550;9.926;2023-08-08T05:38:34;3.38;;;1.30;;
43823;SDS011;29470;53.550;9.926;2023-08-08T05:43:38;2.70;;;1.30;;
43823;SDS011;29470;53.550;9.926;2023-08-08T05:48:41;6.35;;;1.20;;
43823;SDS011;29470;53.550;9.926;2023-08-08T05:53:45;2.05;;;1.25;;
43823;SDS011;29470;53.550;9.926;2023-08-08T05:58:49;3.38;;;1.40;;
43823;SDS011;29470;53.550;9.926;2023-08-08T06:03:52;4.57;;;2.35;;
43823;SDS011;29470;53.550;9.926;2023-08-08T06:08:55;3.72;;;1.65;;
43823;SDS011;29470;53.550;9.926;2023-08-08T06:13:59;4.78;;;2.00;;
43823;SDS011;29470;53.550;9.926;2023-08-08T06:19:02;3.08;;;1.48;;
43823;SDS011;29470;53.550;9.926;2023-08-08T06:24:05;3.92;;;1.75;;
43823;SDS011;29470;53.550;9.926;2023-08-08T06:29:09;2.80;;;1.58;;
43823;SDS011;29470;53.550;9.926;2023-08-08T06:34:13;3.28;;;1.70;;
43823;SDS011;29470;53.550;9.926;2023-08-08T06:39:16;4.60;;;1.77;;
43823;SDS011;29470;53.550;9.926;2023-08-08T06:44:22;2.90;;;1.50;;
43823;SDS011;29470;53.550;9.926;2023-08-08T06:49:25;5.65;;;1.77;;
43823;SDS011;29470;53.550;9.926;2023-08-08T06:54:27;5.22;;;1.60;;
43823;SDS011;29470;53.550;9.926;2023-08-08T06:59:31;5.40;;;1.58;;
43823;SDS011;29470;53.550;9.926;2023-08-08T07:04:34;6.30;;;1.30;;
43823;SDS011;29470;53.550;9.926;2023-08-08T07:09:37;4.30;;;1.65;;
43823;SDS011;29470;53.550;9.926;2023-08-08T07:14:41;3.60;;;0.90;;
43823;SDS011;29470;53.550;9.926;2023-08-08T07:19:44;1.85;;;1.20;;
43823;SDS011;29470;53.550;9.926;2023-08-08T07:24:47;2.00;;;0.82;;
43823;SDS011;29470;53.550;9.926;2023-08-08T07:29:52;3.42;;;1.30;;
43823;SDS011;29470;53.550;9.926;2023-08-08T07:34:54;3.67;;;0.93;;
43823;SDS011;29470;53.550;9.926;2023-08-08T07:39:57;3.20;;;1.08;;
43823;SDS011;29470;53.550;9.926;2023-08-08T07:45:02;4.18;;;1.10;;
43823;SDS011;29470;53.550;9.926;2023-08-08T07:50:06;5.00;;;1.50;;
43823;SDS011;29470;53.550;9.926;2023-08-08T07:55:09;6.50;;;1.70;;
43823;SDS011;29470;53.550;9.926;2023-08-08T08:00:14;13.32;;;2.53;;
43823;SDS011;29470;53.550;9.926;2023-08-08T08:05:20;4.15;;;1.38;;
43823;SDS011;29470;53.550;9.926;2023-08-08T08:10:22;5.30;;;1.60;;
43823;SDS011;29470;53.550;9.926;2023-08-08T08:15:27;5.90;;;1.70;;
43823;SDS011;29470;53.550;9.926;2023-08-08T08:20:30;7.40;;;1.65;;
43823;SDS011;29470;53.550;9.926;2023-08-08T08:25:33;5.70;;;1.65;;
43823;SDS011;29470;53.550;9.926;2023-08-08T08:30:37;5.35;;;1.40;;
43823;SDS011;29470;53.550;9.926;2023-08-08T08:35:40;3.90;;;1.38;;
43823;SDS011;29470;53.550;9.926;2023-08-08T08:40:43;3.58;;;1.30;;
43823;SDS011;29470;53.550;9.926;2023-08-08T08:45:52;4.00;;;1.38;;
43823;SDS011;29470;53.550;9.926;2023-08-08T08:50:55;2.70;;;1.20;;
43823;SDS011;29470;53.550;9.926;2023-08-08T08:55:59;3.03;;;1.08;;
43823;SDS011;29470;53.550;9.926;2023-08-08T09:01:03;4.25;;;0.90;;
43823;SDS011;29470;53.550;9.926;2023-08-08T09:06:06;3.75;;;1.17;;
43823;SDS011;29470;53.550;9.926;2023-08-08T09:11:09;3.05;;;0.98;;
43823;SDS011;29470;53.550;9.926;2023-08-08T09:16:14;3.40;;;1.05;;
43823;SDS011;29470;53.550;9.926;2023-08-08T09:21:17;5.65;;;1.00;;
43823;SDS011;29470;53.550;9.926;2023-08-08T09:26:20;2.28;;;0.90;;
43823;SDS011;29470;53.550;9.926;2023-08-08T09:31:25;2.30;;;0.80;;
43823;SDS011;29470;53.550;9.926;2023-08-08T09:36:28;2.97;;;1.45;;
43823;SDS011;29470;53.550;9.926;2023-08-08T09:41:34;2.08;;;0.90;;
43823;SDS011;29470;53.550;9.926;2023-08-08T09:46:39;3.03;;;1.02;;
43823;SDS011;29470;53.550;9.926;2023-08-08T09:51:42;3.13;;;0.98;;
43823;SDS011;29470;53.550;9.926;2023-08-08T09:56:46;2.88;;;1.02;;
43823;SDS011;29470;53.550;9.926;2023-08-08T10:01:51;3.17;;;0.80;;
43823;SDS011;29470;53.550;9.926;2023-08-08T10:06:54;4.03;;;1.27;;
43823;SDS011;29470;53.550;9.926;2023-08-08T10:11:58;2.55;;;1.00;;
43823;SDS011;29470;53.550;9.926;2023-08-08T10:17:03;3.80;;;1.08;;
43823;SDS011;29470;53.550;9.926;2023-08-08T10:22:07;4.28;;;1.42;;
43823;SDS011;29470;53.550;9.926;2023-08-08T10:27:11;3.15;;;1.33;;
43823;SDS011;29470;53.550;9.926;2023-08-08T10:32:21;4.20;;;1.02;;
43823;SDS011;29470;53.550;9.926;2023-08-08T10:37:26;5.10;;;1.48;;
43823;SDS011;29470;53.550;9.926;2023-08-08T10:42:29;3.53;;;1.00;;
43823;SDS011;29470;53.550;9.926;2023-08-08T10:47:35;3.88;;;1.60;;
43823;SDS011;29470;53.550;9.926;2023-08-08T10:52:38;4.85;;;1.35;;
43823;SDS011;29470;53.550;9.926;2023-08-08T10:57:53;2.65;;;1.10;;
43823;SDS011;29470;53.550;9.926;2023-08-08T11:02:59;2.42;;;0.80;;
43823;SDS011;29470;53.550;9.926;2023-08-08T11:08:03;2.85;;;1.00;;
43823;SDS011;29470;53.550;9.926;2023-08-08T11:13:07;4.90;;;1.35;;
43823;SDS011;29470;53.550;9.926;2023-08-08T11:18:12;3.50;;;1.55;;
43823;SDS011;29470;53.550;9.926;2023-08-08T11:23:17;4.20;;;1.05;;
43823;SDS011;29470;53.550;9.926;2023-08-08T11:28:21;3.03;;;1.00;;
43823;SDS011;29470;53.550;9.926;2023-08-08T11:33:26;4.45;;;1.05;;
43823;SDS011;29470;53.550;9.926;2023-08-08T11:38:29;2.63;;;0.90;;
43823;SDS011;29470;53.550;9.926;2023-08-08T11:43:34;2.05;;;1.00;;
43823;SDS011;29470;53.550;9.926;2023-08-08T11:48:39;3.42;;;1.05;;
43823;SDS011;29470;53.550;9.926;2023-08-08T11:53:47;3.00;;;1.10;;
43823;SDS011;29470;53.550;9.926;2023-08-08T11:58:52;2.70;;;1.13;;
43823;SDS011;29470;53.550;9.926;2023-08-08T12:03:58;5.90;;;1.88;;
43823;SDS011;29470;53.550;9.926;2023-08-08T12:09:07;2.53;;;0.98;;
43823;SDS011;29470;53.550;9.926;2023-08-08T12:14:14;1.90;;;0.88;;
43823;SDS011;29470;53.550;9.926;2023-08-08T12:19:22;2.10;;;0.90;;
43823;SDS011;29470;53.550;9.926;2023-08-08T12:24:25;5.75;;;1.40;;
43823;SDS011;29470;53.550;9.926;2023-08-08T12:29:28;2.88;;;0.88;;
43823;SDS011;29470;53.550;9.926;2023-08-08T12:39:38;4.43;;;0.95;;
43823;SDS011;29470;53.550;9.926;2023-08-08T12:44:40;4.32;;;1.25;;
43823;SDS011;29470;53.550;9.926;2023-08-08T12:49:45;3.75;;;1.33;;
43823;SDS011;29470;53.550;9.926;2023-08-08T12:54:48;6.90;;;2.90;;
43823;SDS011;29470;53.550;9.926;2023-08-08T12:59:51;4.72;;;1.30;;
43823;SDS011;29470;53.550;9.926;2023-08-08T13:04:55;2.78;;;0.90;;
43823;SDS011;29470;53.550;9.926;2023-08-08T13:09:58;6.07;;;2.00;;
43823;SDS011;29470;53.550;9.926;2023-08-08T13:15:00;8.07;;;1.65;;
43823;SDS011;29470;53.550;9.926;2023-08-08T13:20:06;8.60;;;1.95;;
43823;SDS011;29470;53.550;9.926;2023-08-08T13:25:09;6.80;;;1.70;;
43823;SDS011;29470;53.550;9.926;2023-08-08T13:30:13;5.95;;;2.05;;
43823;SDS011;29470;53.550;9.926;2023-08-08T13:35:18;7.47;;;1.90;;
43823;SDS011;29470;53.550;9.926;2023-08-08T13:40:21;6.15;;;1.70;;
43823;SDS011;29470;53.550;9.926;2023-08-08T13:45:23;6.72;;;1.85;;
43823;SDS011;29470;53.550;9.926;2023-08-08T13:50:28;6.97;;;1.70;;
43823;SDS011;29470;53.550;9.926;2023-08-08T13:55:30;6.25;;;1.52;;
43823;SDS011;29470;53.550;9.926;2023-08-08T14:00:40;3.03;;;1.00;;
43823;SDS011;29470;53.550;9.926;2023-08-08T14:05:44;3.22;;;1.20;;
43823;SDS011;29470;53.550;9.926;2023-08-08T14:10:47;4.80;;;1.35;;
43823;SDS011;29470;53.550;9.926;2023-08-08T14:15:50;4.72;;;1.50;;
43823;SDS011;29470;53.550;9.926;2023-08-08T14:20:54;5.75;;;1.42;;
43823;SDS011;29470;53.550;9.926;2023-08-08T14:25:57;6.60;;;1.45;;
43823;SDS011;29470;53.550;9.926;2023-08-08T14:31:00;7.20;;;1.98;;
43823;SDS011;29470;53.550;9.926;2023-08-08T14:36:04;7.55;;;1.23;;
43823;SDS011;29470;53.550;9.926;2023-08-08T14:41:08;4.20;;;1.40;;
43823;SDS011;29470;53.550;9.926;2023-08-08T14:46:10;4.68;;;1.40;;
43823;SDS011;29470;53.550;9.926;2023-08-08T14:51:15;7.47;;;1.70;;
43823;SDS011;29470;53.550;9.926;2023-08-08T14:56:20;7.03;;;1.50;;
43823;SDS011;29470;53.550;9.926;2023-08-08T15:01:23;4.18;;;1.20;;
43823;SDS011;29470;53.550;9.926;2023-08-08T15:06:27;5.78;;;1.38;;
43823;SDS011;29470;53.550;9.926;2023-08-08T15:11:30;6.05;;;1.38;;
43823;SDS011;29470;53.550;9.926;2023-08-08T15:16:33;5.43;;;1.50;;
43823;SDS011;29470;53.550;9.926;2023-08-08T15:21:37;2.72;;;1.15;;
43823;SDS011;29470;53.550;9.926;2023-08-08T15:26:40;4.90;;;1.40;;
43823;SDS011;29470;53.550;9.926;2023-08-08T15:31:43;3.90;;;1.20;;
43823;SDS011;29470;53.550;9.926;2023-08-08T15:36:47;8.20;;;1.20;;
43823;SDS011;29470;53.550;9.926;2023-08-08T15:41:51;3.95;;;1.08;;
43823;SDS011;29470;53.550;9.926;2023-08-08T15:46:54;7.90;;;1.60;;
43823;SDS011;29470;53.550;9.926;2023-08-08T15:51:58;8.25;;;1.60;;
43823;SDS011;29470;53.550;9.926;2023-08-08T15:57:01;11.05;;;1.90;;
43823;SDS011;29470;53.550;9.926;2023-08-08T16:02:05;7.32;;;1.58;;
43823;SDS011;29470;53.550;9.926;2023-08-08T16:07:09;9.88;;;1.65;;
43823;SDS011;29470;53.550;9.926;2023-08-08T16:12:12;6.07;;;1.50;;
43823;SDS011;29470;53.550;9.926;2023-08-08T16:17:15;8.60;;;1.50;;
43823;SDS011;29470;53.550;9.926;2023-08-08T16:22:19;5.53;;;1.83;;
43823;SDS011;29470;53.550;9.926;2023-08-08T16:27:22;5.22;;;1.50;;
43823;SDS011;29470;53.550;9.926;2023-08-08T16:32:25;7.30;;;1.85;;
43823;SDS011;29470;53.550;9.926;2023-08-08T16:37:29;5.72;;;2.00;;
43823;SDS011;29470;53.550;9.926;2023-08-08T16:42:32;5.53;;;2.00;;
43823;SDS011;29470;53.550;9.926;2023-08-08T16:47:35;3.72;;;1.50;;
43823;SDS011;29470;53.550;9.926;2023-08-08T16:52:39;6.80;;;1.75;;
43823;SDS011;29470;53.550;9.926;2023-08-08T16:57:42;6.15;;;1.88;;
43823;SDS011;29470;53.550;9.926;2023-08-08T17:02:45;5.15;;;1.33;;
43823;SDS011;29470;53.550;9.926;2023-08-08T17:07:49;6.45;;;1.70;;
43823;SDS011;29470;53.550;9.926;2023-08-08T17:12:52;8.00;;;1.55;;
43823;SDS011;29470;53.550;9.926;2023-08-08T17:17:55;5.47;;;1.30;;
43823;SDS011;29470;53.550;9.926;2023-08-08T17:22:59;4.25;;;1.17;;
43823;SDS011;29470;53.550;9.926;2023-08-08T17:28:03;8.70;;;1.88;;
43823;SDS011;29470;53.550;9.926;2023-08-08T17:33:06;7.07;;;2.28;;
43823;SDS011;29470;53.550;9.926;2023-08-08T17:38:10;5.47;;;1.83;;
43823;SDS011;29470;53.550;9.926;2023-08-08T17:43:13;8.15;;;1.40;;
43823;SDS011;29470;53.550;9.926;2023-08-08T17:48:16;5.85;;;1.75;;
43823;SDS011;29470;53.550;9.926;2023-08-08T17:53:20;7.03;;;1.90;;
43823;SDS011;29470;53.550;9.926;2023-08-08T17:58:23;8.05;;;1.85;;
43823;SDS011;29470;53.550;9.926;2023-08-08T18:03:26;7.35;;;1.65;;
43823;SDS011;29470;53.550;9.926;2023-08-08T18:08:31;5.97;;;1.30;;
43823;SDS011;29470;53.550;9.926;2023-08-08T18:13:34;7.47;;;1.38;;
43823;SDS011;29470;53.550;9.926;2023-08-08T18:18:36;7.22;;;1.60;;
43823;SDS011;29470;53.550;9.926;2023-08-08T18:23:41;6.50;;;1.80;;
43823;SDS011;29470;53.550;9.926;2023-08-08T18:28:43;6.53;;;1.98;;
43823;SDS011;29470;53.550;9.926;2023-08-08T18:33:46;8.93;;;1.40;;
43823;SDS011;29470;53.550;9.926;2023-08-08T18:38:51;4.05;;;1.50;;
43823;SDS011;29470;53.550;9.926;2023-08-08T18:43:53;6.55;;;1.52;;
43823;SDS011;29470;53.550;9.926;2023-08-08T18:48:56;8.57;;;1.60;;
43823;SDS011;29470;53.550;9.926;2023-08-08T18:54:01;3.83;;;1.40;;
43823;SDS011;29470;53.550;9.926;2023-08-08T18:59:05;4.45;;;1.85;;
43823;SDS011;29470;53.550;9.926;2023-08-08T19:04:08;5.93;;;1.38;;
43823;SDS011;29470;53.550;9.926;2023-08-08T19:09:12;5.90;;;1.88;;
43823;SDS011;29470;53.550;9.926;2023-08-08T19:14:18;4.03;;;1.08;;
43823;SDS011;29470;53.550;9.926;2023-08-08T19:19:21;6.45;;;1.95;;
43823;SDS011;29470;53.550;9.926;2023-08-08T19:24:25;9.50;;;2.53;;
43823;SDS011;29470;53.550;9.926;2023-08-08T19:29:28;4.15;;;1.40;;
43823;SDS011;29470;53.550;9.926;2023-08-08T19:34:31;4.75;;;1.50;;
43823;SDS011;29470;53.550;9.926;2023-08-08T19:39:35;8.30;;;1.60;;
43823;SDS011;29470;53.550;9.926;2023-08-08T19:44:38;9.95;;;2.10;;
43823;SDS011;29470;53.550;9.926;2023-08-08T19:49:41;7.68;;;1.67;;
43823;SDS011;29470;53.550;9.926;2023-08-08T19:54:46;6.95;;;1.60;;
43823;SDS011;29470;53.550;9.926;2023-08-08T19:59:49;8.75;;;1.70;;
43823;SDS011;29470;53.550;9.926;2023-08-08T20:04:55;5.15;;;1.80;;
43823;SDS011;29470;53.550;9.926;2023-08-08T20:09:59;9.30;;;1.80;;
43823;SDS011;29470;53.550;9.926;2023-08-08T20:15:03;7.05;;;1.80;;
43823;SDS011;29470;53.550;9.926;2023-08-08T20:20:07;7.15;;;1.45;;
43823;SDS011;29470;53.550;9.926;2023-08-08T20:25:11;6.30;;;1.50;;
43823;SDS011;29470;53.550;9.926;2023-08-08T20:30:15;5.82;;;1.48;;
43823;SDS011;29470;53.550;9.926;2023-08-08T20:35:18;7.40;;;1.38;;
43823;SDS011;29470;53.550;9.926;2023-08-08T20:40:22;7.82;;;1.67;;
43823;SDS011;29470;53.550;9.926;2023-08-08T20:45:25;4.07;;;1.25;;
43823;SDS011;29470;53.550;9.926;2023-08-08T20:50:29;5.90;;;1.67;;
43823;SDS011;29470;53.550;9.926;2023-08-08T20:55:33;6.75;;;1.80;;
43823;SDS011;29470;53.550;9.926;2023-08-08T21:00:36;5.30;;;1.60;;
43823;SDS011;29470;53.550;9.926;2023-08-08T21:05:39;10.73;;;1.95;;
43823;SDS011;29470;53.550;9.926;2023-08-08T21:10:43;6.22;;;1.95;;
43823;SDS011;29470;53.550;9.926;2023-08-08T21:15:46;6.32;;;1.63;;
43823;SDS011;29470;53.550;9.926;2023-08-08T21:20:48;7.65;;;1.67;;
43823;SDS011;29470;53.550;9.926;2023-08-08T21:25:52;10.55;;;2.08;;
43823;SDS011;29470;53.550;9.926;2023-08-08T21:30:55;9.77;;;1.95;;
43823;SDS011;29470;53.550;9.926;2023-08-08T21:35:58;6.70;;;2.00;;
43823;SDS011;29470;53.550;9.926;2023-08-08T21:41:02;7.10;;;2.25;;
43823;SDS011;29470;53.550;9.926;2023-08-08T21:46:05;7.07;;;2.10;;
43823;SDS011;29470;53.550;9.926;2023-08-08T21:51:08;9.45;;;2.53;;
43823;SDS011;29470;53.550;9.926;2023-08-08T21:56:13;6.75;;;1.95;;
43823;SDS011;29470;53.550;9.926;2023-08-08T22:01:16;10.63;;;2.30;;
43823;SDS011;29470;53.550;9.926;2023-08-08T22:06:19;10.30;;;2.38;;
43823;SDS011;29470;53.550;9.926;2023-08-08T22:11:23;6.68;;;2.20;;
43823;SDS011;29470;53.550;9.926;2023-08-08T22:16:25;7.40;;;2.20;;
43823;SDS011;29470;53.550;9.926;2023-08-08T22:21:28;5.35;;;1.77;;
43823;SDS011;29470;53.550;9.926;2023-08-08T22:26:33;7.10;;;2.15;;
43823;SDS011;29470;53.550;9.926;2023-08-08T22:31:35;6.68;;;1.77;;
43823;SDS011;29470;53.550;9.926;2023-08-08T22:36:38;7.68;;;1.50;;
43823;SDS011;29470;53.550;9.926;2023-08-08T22:41:42;8.27;;;2.08;;
43823;SDS011;29470;53.550;9.926;2023-08-08T22:46:45;4.82;;;1.33;;
43823;SDS011;29470;53.550;9.926;2023-08-08T22:51:48;6.03;;;1.48;;
43823;SDS011;29470;53.550;9.926;2023-08-08T22:56:52;7.97;;;1.35;;
43823;SDS011;29470;53.550;9.926;2023-08-08T23:01:55;5.57;;;1.35;;
43823;SDS011;29470;53.550;9.926;2023-08-08T23:06:58;4.35;;;1.45;;
43823;SDS011;29470;53.550;9.926;2023-08-08T23:12:03;4.07;;;1.27;;
43823;SDS011;29470;53.550;9.926;2023-08-08T23:17:06;8.15;;;1.85;;
43823;SDS011;29470;53.550;9.926;2023-08-08T23:22:09;5.97;;;1.50;;
43823;SDS011;29470;53.550;9.926;2023-08-08T23:27:13;7.07;;;1.30;;
43823;SDS011;29470;53.550;9.926;2023-08-08T23:32:16;7.97;;;1.83;;
43823;SDS011;29470;53.550;9.926;2023-08-08T23:37:19;6.60;;;1.50;;
43823;SDS011;29470;53.550;9.926;2023-08-08T23:42:23;5.78;;;1.48;;
43823;SDS011;29470;53.550;9.926;2023-08-08T23:47:26;6.40;;;1.63;;
43823;SDS011;29470;53.550;9.926;2023-08-08T23:52:29;4.20;;;1.30;;
43823;SDS011;29470;53.550;9.926;2023-08-08T23:57:33;5.50;;;1.40;;
